Time;durP1;ratioP1;P1;durP2;ratioP2;P2;SDS_P1;SDS_P2;PMS_P1;PMS_P2;Temp;Humidity;BMP_temperature;BMP_pressure;BME280_temperature;BME280_humidity;BME280_pressure;Samples;Min_cycle;Max_cycle;Signal;HPM_P1;HPM_P2
2022/07/18 15:08:04;;;;;;;9.55;6.47;;;46.60;18.20;;;37.35;16.35;96044.22;5068181;28;20444;-46
2022/07/18 15:10:33;;;;;;;7.13;6.60;;;46.90;16.80;;;38.05;15.60;96036.78;5047624;28;20588;-49
2022/07/18 15:12:59;;;;;;;6.40;5.97;;;47.50;15.80;;;37.88;15.61;96041.50;5046823;28;20070;-59
2022/07/18 15:15:25;;;;;;;10.38;6.53;;;48.30;15.20;;;37.99;15.20;96046.88;5031317;28;20040;-54
2022/07/18 15:17:51;;;;;;;7.78;6.97;;;48.90;14.60;;;38.33;15.71;96035.28;5030723;28;20020;-57
2022/07/18 15:20:19;;;;;;;8.00;7.28;;;49.60;14.20;;;38.64;15.67;96044.03;5026501;28;20029;-46
2022/07/18 15:22:45;;;;;;;8.25;7.72;;;50.30;13.90;;;38.33;15.19;96030.53;5045215;28;20024;-51
2022/07/18 15:25:12;;;;;;;8.75;8.02;;;51.00;13.50;;;37.96;15.14;96026.28;5046883;28;20453;-47
2022/07/18 15:27:41;;;;;;;9.30;8.60;;;51.60;13.20;;;38.60;15.13;96023.88;5047138;28;20032;-47
2022/07/18 15:30:08;;;;;;;8.45;7.75;;;52.20;12.90;;;37.50;16.36;96017.75;5046783;28;20020;-47
2022/07/18 15:32:34;;;;;;;8.18;7.47;;;52.70;12.70;;;37.92;16.11;96026.34;5045664;28;20025;-51
2022/07/18 15:35:00;;;;;;;8.57;7.88;;;52.80;12.40;;;38.26;16.03;96019.56;5016092;28;20388;-47
2022/07/18 15:37:25;;;;;;;8.93;8.32;;;53.60;12.30;;;38.71;15.39;96010.47;5045793;28;20031;-51
2022/07/18 15:39:54;;;;;;;11.35;10.48;;;54.10;12.10;;;38.65;14.70;96009.44;5032218;28;20029;-49
2022/07/18 15:42:22;;;;;;;11.73;10.93;;;54.50;11.70;;;38.17;15.56;96014.63;5046734;28;20070;-48
2022/07/18 15:44:48;;;;;;;11.60;10.70;;;54.90;11.50;;;38.92;14.80;96005.56;5046716;28;20094;-47
2022/07/18 15:47:14;;;;;;;13.55;12.43;;;55.30;11.40;;;39.39;14.90;96003.00;5037340;28;20071;-48
2022/07/18 15:49:40;;;;;;;14.20;13.13;;;55.70;11.20;;;39.16;15.50;95998.50;5038338;23;20045;-53
2022/07/18 15:52:08;;;;;;;14.80;13.70;;;56.00;11.20;;;38.91;14.66;95988.06;5041597;28;20410;-51
2022/07/18 15:54:35;;;;;;;14.68;13.70;;;56.20;11.00;;;38.95;14.67;95993.53;5024335;28;20013;-50
2022/07/18 15:57:04;;;;;;;15.18;14.27;;;56.20;10.80;;;39.35;14.77;95984.84;5017350;28;20029;-53
2022/07/18 15:59:32;;;;;;;13.45;12.55;;;56.20;10.80;;;38.72;15.32;95980.63;5007632;28;20024;-51
2022/07/18 16:02:01;;;;;;;12.53;10.80;;;56.10;10.90;;;38.90;15.38;95983.72;5016117;28;20021;-53
2022/07/18 16:04:27;;;;;;;11.73;10.82;;;55.90;10.90;;;38.62;15.56;95985.28;5027439;28;20063;-52
2022/07/18 16:06:53;;;;;;;12.23;11.30;;;55.70;10.90;;;38.97;15.61;95975.16;5039427;28;20036;-56
2022/07/18 16:09:20;;;;;;;11.27;10.40;;;55.50;11.00;;;39.17;14.90;95979.78;5032614;28;20029;-53
2022/07/18 16:11:49;;;;;;;10.70;10.10;;;55.40;11.00;;;39.33;15.19;95974.94;5023487;28;20033;-51
2022/07/18 16:14:15;;;;;;;9.87;9.13;;;55.50;11.00;;;39.37;15.22;95971.25;5024809;28;20052;-54
2022/07/18 16:16:42;;;;;;;11.23;10.43;;;55.60;10.90;;;39.43;15.19;95967.47;5007762;28;20186;-53
2022/07/18 16:19:10;;;;;;;12.00;11.20;;;55.80;10.90;;;37.65;16.92;95964.63;5012976;28;20364;-55
2022/07/18 16:21:42;;;;;;;11.43;10.35;;;55.90;10.90;;;38.03;16.52;95966.94;5010590;28;20044;-52
2022/07/18 16:24:10;;;;;;;12.10;11.10;;;55.80;10.90;;;37.69;17.13;95963.31;5011518;28;20025;-53
2022/07/18 16:26:36;;;;;;;10.88;9.93;;;55.80;11.00;;;38.24;16.32;95957.25;5001843;28;20084;-54
2022/07/18 16:29:02;;;;;;;12.38;11.43;;;55.70;11.00;;;38.13;16.66;95960.31;5004922;28;20112;-50
2022/07/18 16:31:28;;;;;;;10.90;9.93;;;55.60;10.90;;;38.06;16.73;95954.94;5007291;28;20403;-51
2022/07/18 16:33:54;;;;;;;10.32;9.52;;;55.60;11.00;;;37.66;16.90;95955.09;5008663;28;20025;-54
2022/07/18 16:36:20;;;;;;;10.63;9.80;;;55.50;10.90;;;37.45;16.78;95954.38;5008732;28;20057;-52
2022/07/18 16:38:46;;;;;;;11.23;10.52;;;55.40;10.90;;;37.20;17.07;95948.56;4992240;28;20200;-52
2022/07/18 16:41:13;;;;;;;10.00;9.23;;;55.20;10.90;;;37.48;16.99;95938.81;5014737;28;20136;-53
2022/07/18 16:43:40;;;;;;;9.18;8.30;;;55.00;10.90;;;36.89;17.28;95936.91;4989826;28;20029;-52
2022/07/18 16:46:07;;;;;;;9.10;8.27;;;54.80;11.00;;;37.21;17.07;95933.47;5015543;28;20042;-56
2022/07/18 16:48:34;;;;;;;9.27;8.65;;;54.60;11.50;;;36.85;17.28;95936.19;5008030;28;20030;-53
2022/07/18 16:51:01;;;;;;;8.05;7.50;;;54.40;11.00;;;36.91;17.08;95935.25;5011092;28;20441;-51
2022/07/18 16:53:28;;;;;;;8.80;8.20;;;54.20;11.00;;;37.20;17.17;95931.88;5013257;28;20022;-53
2022/07/18 16:56:00;;;;;;;6.25;5.85;;;53.90;11.00;;;36.99;16.84;95941.50;5019909;28;20032;-56
2022/07/18 16:58:30;;;;;;;8.57;7.85;;;53.60;11.20;;;37.26;16.65;95942.09;5010893;28;20079;-50
2022/07/18 17:01:06;;;;;;;6.93;6.53;;;53.50;11.10;;;37.40;16.71;95932.63;5011749;28;20032;-52
2022/07/18 17:03:32;;;;;;;7.57;6.95;;;53.60;11.20;;;37.39;17.08;95933.06;5014293;28;20025;-53
2022/07/18 17:06:02;;;;;;;7.40;6.70;;;53.50;11.10;;;37.73;16.69;95936.25;5036773;28;20035;-50
2022/07/18 17:08:30;;;;;;;7.32;6.72;;;53.50;11.20;;;37.26;16.89;95942.09;5012719;28;20038;-55
2022/07/18 17:10:57;;;;;;;8.73;5.55;;;53.50;11.20;;;37.06;17.47;95935.78;5004547;28;20052;-51
2022/07/18 17:13:23;;;;;;;5.22;4.75;;;53.20;11.20;;;37.06;17.81;95944.09;5030185;28;20031;-53
2022/07/18 17:15:53;;;;;;;6.25;4.07;;;52.60;11.30;;;36.45;18.55;95941.69;5030601;28;20021;-55
2022/07/18 17:18:19;;;;;;;6.95;3.25;;;51.20;11.90;;;35.50;19.42;95938.13;5022005;28;20383;-55
2022/07/18 17:20:49;;;;;;;7.78;3.33;;;49.10;12.60;;;35.14;19.62;95935.88;5000724;28;20021;-52
2022/07/18 17:23:18;;;;;;;3.20;2.75;;;46.90;13.40;;;34.56;20.88;95939.75;5010454;28;20028;-52
2022/07/18 17:25:47;;;;;;;4.32;2.67;;;44.90;14.30;;;34.12;21.03;95933.06;5025589;28;20431;-55
2022/07/18 17:28:17;;;;;;;7.03;2.58;;;43.20;15.20;;;33.73;21.88;95934.97;5013706;28;20017;-53
2022/07/18 17:30:47;;;;;;;3.85;2.40;;;41.80;15.90;;;32.79;21.94;95924.88;5029855;28;20475;-53
2022/07/18 17:33:16;;;;;;;5.45;2.70;;;40.60;16.50;;;32.40;22.45;95929.28;5031386;28;20033;-54
2022/07/18 17:35:47;;;;;;;3.63;2.35;;;39.60;17.10;;;32.01;22.88;95930.19;5030806;28;20017;-55
2022/07/18 17:38:13;;;;;;;5.20;2.50;;;38.70;17.60;;;31.84;24.47;95928.22;5031422;28;20510;-53
2022/07/18 17:40:43;;;;;;;3.22;2.10;;;37.90;18.30;;;31.48;23.81;95936.44;5031365;28;20027;-47
2022/07/18 17:43:15;;;;;;;3.85;2.20;;;37.20;18.70;;;31.07;24.78;95928.50;5030147;28;20024;-48
2022/07/18 17:46:02;;;;;;;4.50;2.58;;;36.60;19.10;;;30.86;24.92;95925.69;5031454;28;20122;-51
2022/07/18 17:48:32;;;;;;;3.92;2.28;;;36.10;19.50;;;30.66;25.47;95917.72;5031399;28;20428;-55
2022/07/18 17:51:01;;;;;;;4.68;2.30;;;35.70;19.90;;;30.38;24.80;95918.38;5013143;28;20041;-55
2022/07/18 17:53:30;;;;;;;5.72;2.42;;;35.30;20.20;;;30.39;25.39;95916.44;5010221;28;20079;-52
2022/07/18 17:55:56;;;;;;;2.33;2.13;;;34.90;20.40;;;30.19;25.48;95922.22;5010101;28;20226;-52
2022/07/18 17:58:22;;;;;;;5.38;2.20;;;34.60;20.70;;;30.03;25.72;95921.69;4988212;28;20059;-48
2022/07/18 18:00:48;;;;;;;4.03;2.35;;;34.40;21.00;;;29.97;25.92;95920.47;5019119;28;20107;-50
2022/07/18 18:03:14;;;;;;;6.63;2.50;;;34.10;21.10;;;29.82;26.32;95918.81;5011358;28;20376;-49
2022/07/18 18:05:41;;;;;;;3.70;3.03;;;33.90;21.50;;;29.76;27.05;95914.84;5009657;28;20391;-50
2022/07/18 18:08:07;;;;;;;4.40;3.35;;;33.70;21.80;;;29.46;27.02;95922.03;5008810;28;20540;-46
2022/07/18 18:10:33;;;;;;;4.30;1.80;;;33.50;22.00;;;29.44;27.59;95918.06;5023796;28;20119;-53
2022/07/18 18:12:59;;;;;;;2.90;2.30;;;33.30;22.20;;;29.23;27.43;95922.19;4970889;28;29911;-51
2022/07/18 18:15:26;;;;;;;5.03;2.10;;;33.10;22.50;;;29.14;27.40;95923.66;4988514;28;20075;-54
2022/07/18 18:17:52;;;;;;;2.83;2.22;;;33.00;22.60;;;28.98;27.44;95923.84;4988743;28;20043;-50
2022/07/18 18:20:19;;;;;;;3.83;2.35;;;32.80;22.70;;;28.85;27.59;95919.81;4989949;28;20024;-54
2022/07/18 18:22:45;;;;;;;3.88;2.08;;;32.70;22.90;;;28.83;28.17;95925.66;4988949;28;20036;-49
2022/07/18 18:25:11;;;;;;;5.35;2.10;;;32.50;23.00;;;28.76;28.68;95926.34;4971140;28;20030;-52
2022/07/18 18:27:38;;;;;;;6.15;2.03;;;32.40;23.40;;;28.64;28.71;95934.81;4952536;28;20036;-47
2022/07/18 18:30:15;;;;;;;6.78;2.50;;;32.30;23.60;;;28.51;29.91;95936.22;4970473;28;20447;-52
2022/07/18 18:32:44;;;;;;;3.35;2.40;;;32.10;24.00;;;28.35;30.96;95934.44;4939065;28;20037;-51
2022/07/18 18:35:11;;;;;;;22.90;3.10;;;31.90;24.40;;;28.16;30.80;95939.25;4970260;28;20064;-53
2022/07/18 18:37:38;;;;;;;27.73;3.33;;;31.80;24.70;;;28.03;31.46;95944.16;4968873;28;20685;-51
2022/07/18 18:40:08;;;;;;;9.48;2.17;;;31.60;24.90;;;27.84;32.14;95940.38;4969416;28;20121;-52
2022/07/18 18:42:35;;;;;;;5.13;2.35;;;31.40;25.40;;;27.63;32.82;95938.03;4960696;28;20034;-53
2022/07/18 18:45:02;;;;;;;20.70;2.50;;;31.20;25.60;;;27.43;32.83;95942.78;4970849;28;20026;-49
2022/07/18 18:47:31;;;;;;;6.38;2.30;;;31.00;25.90;;;27.22;33.77;95943.19;4942988;28;23934;-49
2022/07/18 18:50:08;;;;;;;7.95;2.80;;;30.80;26.30;;;27.01;33.71;95937.31;4976782;28;20033;-49
2022/07/18 18:52:35;;;;;;;7.97;2.50;;;30.60;26.60;;;26.85;34.42;95942.06;4970280;28;20030;-50
2022/07/18 18:55:01;;;;;;;10.77;2.88;;;30.40;26.80;;;26.64;35.25;95940.53;4970423;28;20022;-51
2022/07/18 18:57:27;;;;;;;5.60;2.65;;;30.20;27.20;;;26.46;36.16;95937.38;4965346;28;20121;-50
2022/07/18 18:59:56;;;;;;;11.32;2.55;;;30.00;27.60;;;26.25;36.42;95943.16;4952563;28;20105;-52
2022/07/18 19:02:22;;;;;;;6.18;2.20;;;29.80;27.90;;;26.04;37.19;95938.06;4969020;28;20373;-51
2022/07/18 19:04:48;;;;;;;6.05;2.50;;;29.60;28.30;;;25.83;37.23;95941.06;4969199;28;20037;-48
2022/07/18 19:07:23;;;;;;;6.65;3.03;;;29.40;28.60;;;25.61;37.89;95938.94;4969793;28;20471;-50
2022/07/18 19:09:52;;;;;;;14.30;2.97;;;29.20;28.90;;;25.43;38.30;95938.50;4968412;28;20026;-51
2022/07/18 19:12:18;;;;;;;13.68;2.55;;;29.00;29.30;;;25.24;38.97;95933.75;4969051;28;20569;-49
2022/07/18 19:14:43;;;;;;;22.48;3.22;;;28.80;29.50;;;25.05;39.55;95933.59;4970106;28;20105;-48
2022/07/18 19:17:09;;;;;;;13.80;2.63;;;28.60;29.80;;;24.85;39.98;95930.75;4970119;28;20481;-48
2022/07/18 19:19:38;;;;;;;5.75;2.20;;;28.40;30.10;;;24.64;40.55;95932.88;4969671;28;20113;-50
2022/07/18 19:22:03;;;;;;;5.40;2.10;;;28.20;30.50;;;24.43;41.49;95933.06;4984669;28;20444;-51
2022/07/18 19:24:29;;;;;;;7.25;2.28;;;27.90;30.90;;;24.21;41.69;95937.06;4934314;28;25617;-51
2022/07/18 19:26:58;;;;;;;4.50;2.30;;;27.70;31.30;;;24.03;42.33;95933.78;4980302;28;20508;-52
2022/07/18 19:29:32;;;;;;;6.90;2.15;;;27.50;31.80;;;23.85;42.71;95932.44;4969212;28;20106;-53
2022/07/18 19:31:57;;;;;;;6.25;1.90;;;27.40;32.10;;;23.68;42.68;95934.25;4952797;28;20045;-48
2022/07/18 19:34:24;;;;;;;6.38;2.58;;;27.20;32.40;;;23.49;43.31;95936.75;4970060;28;20030;-48
2022/07/18 19:36:50;;;;;;;7.13;2.20;;;27.00;32.70;;;23.33;43.75;95931.19;4968701;28;20036;-50
2022/07/18 19:39:16;;;;;;;5.93;2.70;;;26.80;33.00;;;23.15;44.01;95940.66;4967961;28;20393;-49
2022/07/18 19:41:45;;;;;;;15.50;2.72;;;26.70;33.40;;;22.96;44.48;95931.09;4969094;28;20114;-50
2022/07/18 19:44:14;;;;;;;6.88;2.65;;;26.50;33.80;;;22.80;44.52;95939.06;4969447;28;20109;-49
2022/07/18 19:46:43;;;;;;;6.60;2.33;;;26.40;34.10;;;22.69;44.64;95937.06;4969962;28;20033;-50
2022/07/18 19:49:09;;;;;;;9.90;2.67;;;26.20;34.30;;;22.56;44.74;95939.78;4967783;28;20362;-48
2022/07/18 19:51:41;;;;;;;5.25;2.40;;;26.10;34.40;;;22.43;44.16;95931.88;4968045;28;20129;-52
2022/07/18 19:54:06;;;;;;;6.60;2.40;;;25.90;34.50;;;22.32;44.71;95935.00;4972082;28;20030;-47
2022/07/18 19:56:34;;;;;;;4.75;2.33;;;25.80;34.40;;;22.23;44.72;95937.00;4972741;28;20030;-48
2022/07/18 19:58:59;;;;;;;8.13;2.33;;;25.70;34.60;;;22.16;45.01;95937.50;4974113;28;20037;-51
2022/07/18 20:01:26;;;;;;;9.52;2.33;;;25.60;34.90;;;22.09;45.05;95939.13;4972650;28;20030;-54
2022/07/18 20:03:52;;;;;;;8.90;2.20;;;25.50;35.10;;;22.00;45.43;95949.22;4973590;28;20029;-50
2022/07/18 20:06:41;;;;;;;5.90;2.40;;;25.40;35.20;;;21.87;45.61;95937.50;4972805;28;20034;-54
2022/07/18 20:09:10;;;;;;;8.90;2.50;;;25.30;35.50;;;21.68;46.75;95938.72;4972967;28;20018;-48
2022/07/18 20:11:37;;;;;;;7.75;2.20;;;25.20;35.50;;;21.59;46.84;95937.16;4971676;28;20095;-50
2022/07/18 20:14:02;;;;;;;5.25;2.15;;;25.10;35.70;;;21.54;47.02;95942.78;4980454;28;20018;-54
2022/07/18 20:16:28;;;;;;;6.35;2.55;;;25.00;35.90;;;21.39;47.29;95942.19;4978491;28;20033;-55
2022/07/18 20:18:55;;;;;;;6.07;1.95;;;24.90;36.10;;;21.20;48.04;95936.34;4973357;28;20046;-52
2022/07/18 20:21:21;;;;;;;7.90;2.25;;;24.80;36.30;;;21.18;47.78;95944.00;4971546;28;20064;-49
2022/07/18 20:23:53;;;;;;;8.15;2.22;;;24.70;36.60;;;21.12;47.52;95935.28;4976022;28;20504;-52
2022/07/18 20:26:22;;;;;;;3.33;1.98;;;24.60;36.90;;;21.01;48.46;95929.41;4990762;28;20029;-49
2022/07/18 20:28:48;;;;;;;5.20;2.05;;;24.60;37.00;;;20.91;48.26;95927.03;4991037;28;20033;-51
2022/07/18 20:31:14;;;;;;;3.65;1.90;;;24.40;37.10;;;21.12;45.93;95929.03;4990793;28;20537;-53
2022/07/18 20:33:43;;;;;;;2.55;2.10;;;24.40;37.10;;;21.51;45.23;95929.91;4974763;28;20018;-48
2022/07/18 20:36:09;;;;;;;4.07;1.77;;;24.40;37.00;;;21.95;42.83;95923.09;4991781;28;20108;-53
2022/07/18 20:38:47;;;;;;;3.97;2.42;;;24.60;36.80;;;22.66;41.20;95916.03;4991804;28;20112;-52
2022/07/18 20:41:13;;;;;;;4.00;2.10;;;24.70;36.60;;;23.02;40.30;95916.16;4991009;28;20025;-51
2022/07/18 20:43:39;;;;;;;5.38;2.08;;;25.00;36.20;;;23.15;40.02;95925.13;4955785;28;20053;-53
2022/07/18 20:46:11;;;;;;;4.93;2.10;;;25.20;35.90;;;23.17;40.15;95920.16;4971282;28;20362;-53
2022/07/18 20:48:38;;;;;;;3.88;2.00;;;25.50;35.60;;;23.14;40.21;95922.78;4970679;28;20025;-54
2022/07/18 20:51:04;;;;;;;2.35;1.95;;;25.60;35.20;;;23.08;40.74;95922.19;4973982;28;20116;-55
2022/07/18 20:53:36;;;;;;;4.40;2.00;;;25.70;35.00;;;22.98;41.70;95925.34;4956415;28;20120;-54
2022/07/18 20:56:02;;;;;;;3.65;2.20;;;25.80;35.10;;;22.85;42.88;95924.47;4956058;28;20029;-53
2022/07/18 20:58:28;;;;;;;2.88;2.10;;;25.80;35.10;;;22.64;42.43;95924.50;4972012;28;20436;-54
2022/07/18 21:00:54;;;;;;;2.38;1.90;;;25.70;35.00;;;22.54;43.67;95925.72;4972212;28;20042;-55
2022/07/18 21:03:26;;;;;;;3.95;2.38;;;25.70;35.20;;;22.35;42.92;95928.91;4973310;28;20077;-54
2022/07/18 21:05:57;;;;;;;2.97;2.70;;;25.60;35.20;;;22.26;43.06;95930.09;4972124;28;20022;-51
2022/07/18 21:08:23;;;;;;;3.42;2.00;;;25.50;35.20;;;22.16;43.99;95932.09;4972946;28;20109;-54
2022/07/18 21:10:49;;;;;;;2.50;2.30;;;25.40;35.40;;;22.05;43.72;95928.13;4971673;28;20565;-51
2022/07/18 21:13:15;;;;;;;5.65;2.40;;;25.30;35.50;;;21.95;44.87;95929.31;4973186;28;20033;-55
2022/07/18 21:15:41;;;;;;;2.95;1.90;;;25.30;35.70;;;21.84;45.19;95930.03;4973236;28;20026;-53
2022/07/18 21:18:09;;;;;;;3.97;2.30;;;25.20;35.90;;;21.67;45.78;95931.72;4971394;28;20061;-50
2022/07/18 21:20:41;;;;;;;8.18;2.45;;;25.10;36.10;;;21.50;45.94;95939.94;4971765;28;20033;-50
2022/07/18 21:23:15;;;;;;;4.65;2.30;;;25.00;36.20;;;21.39;47.02;95936.00;4971760;28;20433;-49
2022/07/18 21:25:43;;;;;;;2.95;2.10;;;24.90;36.70;;;21.22;47.65;95943.03;4971180;28;20109;-49
2022/07/18 21:28:12;;;;;;;4.72;2.38;;;24.70;36.80;;;21.05;48.11;95936.88;4954712;28;20041;-52
2022/07/18 21:30:40;;;;;;;3.92;2.10;;;24.60;37.10;;;20.75;48.69;95939.50;4972210;28;20026;-54
2022/07/18 21:33:10;;;;;;;2.20;2.00;;;24.40;37.40;;;20.54;49.79;95937.44;4984508;28;20040;-51
2022/07/18 21:35:39;;;;;;;3.25;1.88;;;24.30;37.90;;;20.46;49.71;95945.53;4990783;28;20071;-54
2022/07/18 21:38:06;;;;;;;3.15;2.30;;;24.10;38.10;;;20.38;50.46;95949.03;4990643;28;20026;-55
2022/07/18 21:40:41;;;;;;;4.28;2.20;;;23.90;38.30;;;20.20;50.60;95945.53;4990786;28;20045;-52
2022/07/18 21:43:13;;;;;;;3.95;2.35;;;23.80;38.80;;;20.07;51.36;95944.56;4992218;28;20044;-55
2022/07/18 21:45:45;;;;;;;6.93;2.33;;;23.70;39.00;;;19.99;51.86;95942.63;4990859;28;20030;-55
2022/07/18 21:48:17;;;;;;;6.57;2.33;;;23.60;39.50;;;19.87;51.26;95948.66;4991324;28;20033;-55
2022/07/18 21:50:43;;;;;;;3.63;2.27;;;23.50;39.70;;;19.77;51.76;95938.91;4984904;23;20057;-44
2022/07/18 21:53:09;;;;;;;6.50;2.20;;;23.40;39.70;;;19.69;51.81;95942.41;4952734;28;20042;-44
2022/07/18 21:55:35;;;;;;;3.33;2.38;;;23.30;39.90;;;19.62;52.33;95939.34;4968055;28;20058;-45
2022/07/18 21:58:04;;;;;;;5.13;2.22;;;23.20;40.20;;;19.60;52.06;95938.84;4952827;28;20030;-43
2022/07/18 22:00:29;;;;;;;5.68;2.03;;;23.10;40.40;;;19.53;52.16;95931.22;4952266;28;20053;-43
2022/07/18 22:03:01;;;;;;;5.13;2.58;;;23.00;40.60;;;19.47;51.99;95939.78;4951675;28;20026;-48
2022/07/18 22:05:26;;;;;;;3.80;2.33;;;22.90;40.60;;;19.42;52.66;95935.28;4942009;28;20102;-45
